sensor_id;sensor_type;location;lat;lon;timestamp;P1;durP1;ratioP1;P2;durP2;ratioP2
5195;SDS011;2617;51.006;12.436;2024-02-23T00:01:34;0.75;;;0.62;;
5195;SDS011;2617;51.006;12.436;2024-02-23T00:06:37;0.57;;;0.57;;
5195;SDS011;2617;51.006;12.436;2024-02-23T00:11:40;0.50;;;0.50;;
5195;SDS011;2617;51.006;12.436;2024-02-23T00:16:43;0.50;;;0.50;;
5195;SDS011;2617;51.006;12.436;2024-02-23T00:21:45;0.60;;;0.60;;
5195;SDS011;2617;51.006;12.436;2024-02-23T00:26:49;0.60;;;0.60;;
5195;SDS011;2617;51.006;12.436;2024-02-23T00:31:52;0.40;;;0.40;;
5195;SDS011;2617;51.006;12.436;2024-02-23T00:36:55;0.93;;;0.60;;
5195;SDS011;2617;51.006;12.436;2024-02-23T00:47:10;2.30;;;0.50;;
5195;SDS011;2617;51.006;12.436;2024-02-23T00:52:12;1.40;;;0.60;;
5195;SDS011;2617;51.006;12.436;2024-02-23T00:57:15;0.30;;;0.30;;
5195;SDS011;2617;51.006;12.436;2024-02-23T01:02:18;0.50;;;0.50;;
5195;SDS011;2617;51.006;12.436;2024-02-23T01:07:20;0.70;;;0.57;;
5195;SDS011;2617;51.006;12.436;2024-02-23T01:12:24;0.50;;;0.50;;
5195;SDS011;2617;51.006;12.436;2024-02-23T01:17:27;0.50;;;0.50;;
5195;SDS011;2617;51.006;12.436;2024-02-23T01:22:35;3.30;;;0.50;;
5195;SDS011;2617;51.006;12.436;2024-02-23T01:27:38;0.50;;;0.50;;
5195;SDS011;2617;51.006;12.436;2024-02-23T01:32:40;0.50;;;0.50;;
5195;SDS011;2617;51.006;12.436;2024-02-23T01:37:43;1.17;;;0.50;;
5195;SDS011;2617;51.006;12.436;2024-02-23T01:42:46;0.70;;;0.40;;
5195;SDS011;2617;51.006;12.436;2024-02-23T01:47:49;0.40;;;0.40;;
5195;SDS011;2617;51.006;12.436;2024-02-23T01:52:52;1.60;;;0.50;;
5195;SDS011;2617;51.006;12.436;2024-02-23T01:57:54;1.33;;;0.53;;
5195;SDS011;2617;51.006;12.436;2024-02-23T02:02:57;0.33;;;0.33;;
5195;SDS011;2617;51.006;12.436;2024-02-23T02:07:59;0.30;;;0.30;;
5195;SDS011;2617;51.006;12.436;2024-02-23T02:13:03;0.67;;;0.40;;
5195;SDS011;2617;51.006;12.436;2024-02-23T02:18:05;0.30;;;0.30;;
5195;SDS011;2617;51.006;12.436;2024-02-23T02:23:08;1.60;;;0.40;;
5195;SDS011;2617;51.006;12.436;2024-02-23T02:28:10;0.30;;;0.30;;
5195;SDS011;2617;51.006;12.436;2024-02-23T02:33:13;0.30;;;0.30;;
5195;SDS011;2617;51.006;12.436;2024-02-23T02:38:16;0.50;;;0.30;;
5195;SDS011;2617;51.006;12.436;2024-02-23T02:43:19;0.50;;;0.50;;
5195;SDS011;2617;51.006;12.436;2024-02-23T02:48:22;0.73;;;0.37;;
5195;SDS011;2617;51.006;12.436;2024-02-23T02:53:24;1.20;;;0.40;;
5195;SDS011;2617;51.006;12.436;2024-02-23T02:58:27;0.40;;;0.40;;
5195;SDS011;2617;51.006;12.436;2024-02-23T03:03:30;0.67;;;0.57;;
5195;SDS011;2617;51.006;12.436;2024-02-23T03:08:34;0.50;;;0.50;;
5195;SDS011;2617;51.006;12.436;2024-02-23T03:13:37;0.60;;;0.40;;
5195;SDS011;2617;51.006;12.436;2024-02-23T03:18:39;1.53;;;0.50;;
5195;SDS011;2617;51.006;12.436;2024-02-23T03:23:42;0.83;;;0.83;;
5195;SDS011;2617;51.006;12.436;2024-02-23T03:28:45;0.40;;;0.40;;
5195;SDS011;2617;51.006;12.436;2024-02-23T03:33:47;1.58;;;0.40;;
5195;SDS011;2617;51.006;12.436;2024-02-23T03:38:50;0.40;;;0.40;;
5195;SDS011;2617;51.006;12.436;2024-02-23T03:43:52;1.02;;;0.60;;
5195;SDS011;2617;51.006;12.436;2024-02-23T03:48:55;0.50;;;0.50;;
5195;SDS011;2617;51.006;12.436;2024-02-23T03:53:58;4.22;;;0.60;;
5195;SDS011;2617;51.006;12.436;2024-02-23T03:59:01;0.60;;;0.40;;
5195;SDS011;2617;51.006;12.436;2024-02-23T04:04:03;0.40;;;0.40;;
5195;SDS011;2617;51.006;12.436;2024-02-23T04:09:06;0.93;;;0.33;;
5195;SDS011;2617;51.006;12.436;2024-02-23T04:14:08;0.30;;;0.30;;
5195;SDS011;2617;51.006;12.436;2024-02-23T04:19:11;0.47;;;0.40;;
5195;SDS011;2617;51.006;12.436;2024-02-23T04:24:14;1.27;;;0.40;;
5195;SDS011;2617;51.006;12.436;2024-02-23T04:29:17;0.47;;;0.47;;
5195;SDS011;2617;51.006;12.436;2024-02-23T04:34:19;2.30;;;0.40;;
5195;SDS011;2617;51.006;12.436;2024-02-23T04:39:23;0.83;;;0.40;;
5195;SDS011;2617;51.006;12.436;2024-02-23T04:44:26;1.65;;;0.37;;
5195;SDS011;2617;51.006;12.436;2024-02-23T04:49:31;1.90;;;0.47;;
5195;SDS011;2617;51.006;12.436;2024-02-23T04:54:35;0.93;;;0.50;;
5195;SDS011;2617;51.006;12.436;2024-02-23T04:59:38;0.52;;;0.40;;
5195;SDS011;2617;51.006;12.436;2024-02-23T05:04:40;0.40;;;0.40;;
5195;SDS011;2617;51.006;12.436;2024-02-23T05:09:44;0.52;;;0.52;;
5195;SDS011;2617;51.006;12.436;2024-02-23T05:14:46;0.40;;;0.40;;
5195;SDS011;2617;51.006;12.436;2024-02-23T05:19:49;0.40;;;0.40;;
5195;SDS011;2617;51.006;12.436;2024-02-23T05:24:52;0.40;;;0.40;;
5195;SDS011;2617;51.006;12.436;2024-02-23T05:29:54;0.40;;;0.40;;
5195;SDS011;2617;51.006;12.436;2024-02-23T05:34:57;0.85;;;0.40;;
5195;SDS011;2617;51.006;12.436;2024-02-23T05:39:59;1.03;;;0.47;;
5195;SDS011;2617;51.006;12.436;2024-02-23T05:45:02;0.53;;;0.53;;
5195;SDS011;2617;51.006;12.436;2024-02-23T05:50:07;0.43;;;0.40;;
5195;SDS011;2617;51.006;12.436;2024-02-23T05:55:11;1.47;;;0.60;;
5195;SDS011;2617;51.006;12.436;2024-02-23T06:00:13;0.70;;;0.60;;
5195;SDS011;2617;51.006;12.436;2024-02-23T06:05:17;3.70;;;0.40;;
5195;SDS011;2617;51.006;12.436;2024-02-23T06:10:20;1.13;;;0.50;;
5195;SDS011;2617;51.006;12.436;2024-02-23T06:15:23;0.50;;;0.35;;
5195;SDS011;2617;51.006;12.436;2024-02-23T06:20:26;0.60;;;0.40;;
5195;SDS011;2617;51.006;12.436;2024-02-23T06:25:29;0.43;;;0.43;;
5195;SDS011;2617;51.006;12.436;2024-02-23T06:30:32;0.70;;;0.55;;
5195;SDS011;2617;51.006;12.436;2024-02-23T06:35:35;1.37;;;0.70;;
5195;SDS011;2617;51.006;12.436;2024-02-23T06:40:38;0.73;;;0.40;;
5195;SDS011;2617;51.006;12.436;2024-02-23T06:45:41;0.40;;;0.40;;
5195;SDS011;2617;51.006;12.436;2024-02-23T06:50:46;2.52;;;0.54;;
5195;SDS011;2617;51.006;12.436;2024-02-23T06:55:49;0.60;;;0.57;;
5195;SDS011;2617;51.006;12.436;2024-02-23T07:00:53;1.00;;;0.40;;
5195;SDS011;2617;51.006;12.436;2024-02-23T07:05:55;2.00;;;0.70;;
5195;SDS011;2617;51.006;12.436;2024-02-23T07:10:58;0.40;;;0.40;;
5195;SDS011;2617;51.006;12.436;2024-02-23T07:16:01;0.85;;;0.43;;
5195;SDS011;2617;51.006;12.436;2024-02-23T07:21:05;0.50;;;0.40;;
5195;SDS011;2617;51.006;12.436;2024-02-23T07:26:08;0.33;;;0.33;;
5195;SDS011;2617;51.006;12.436;2024-02-23T07:31:10;0.83;;;0.40;;
5195;SDS011;2617;51.006;12.436;2024-02-23T07:36:16;0.40;;;0.40;;
5195;SDS011;2617;51.006;12.436;2024-02-23T07:41:21;1.05;;;0.40;;
5195;SDS011;2617;51.006;12.436;2024-02-23T07:46:24;0.62;;;0.55;;
5195;SDS011;2617;51.006;12.436;2024-02-23T07:51:28;0.50;;;0.50;;
5195;SDS011;2617;51.006;12.436;2024-02-23T07:56:31;0.90;;;0.40;;
5195;SDS011;2617;51.006;12.436;2024-02-23T08:06:46;0.60;;;0.60;;
5195;SDS011;2617;51.006;12.436;2024-02-23T08:11:48;0.40;;;0.40;;
5195;SDS011;2617;51.006;12.436;2024-02-23T08:16:52;0.97;;;0.50;;
5195;SDS011;2617;51.006;12.436;2024-02-23T08:21:55;0.60;;;0.60;;
5195;SDS011;2617;51.006;12.436;2024-02-23T08:26:58;6.23;;;0.60;;
5195;SDS011;2617;51.006;12.436;2024-02-23T08:32:01;0.60;;;0.50;;
5195;SDS011;2617;51.006;12.436;2024-02-23T08:37:05;1.17;;;0.80;;
5195;SDS011;2617;51.006;12.436;2024-02-23T08:42:08;3.00;;;0.50;;
5195;SDS011;2617;51.006;12.436;2024-02-23T08:47:12;0.47;;;0.47;;
5195;SDS011;2617;51.006;12.436;2024-02-23T08:52:18;0.55;;;0.40;;
5195;SDS011;2617;51.006;12.436;2024-02-23T08:57:20;2.00;;;0.60;;
5195;SDS011;2617;51.006;12.436;2024-02-23T09:02:24;0.40;;;0.40;;
5195;SDS011;2617;51.006;12.436;2024-02-23T09:07:26;0.70;;;0.40;;
5195;SDS011;2617;51.006;12.436;2024-02-23T09:12:28;0.50;;;0.50;;
5195;SDS011;2617;51.006;12.436;2024-02-23T09:17:36;5.20;;;1.15;;
5195;SDS011;2617;51.006;12.436;2024-02-23T09:22:39;0.70;;;0.60;;
5195;SDS011;2617;51.006;12.436;2024-02-23T09:27:41;0.67;;;0.50;;
5195;SDS011;2617;51.006;12.436;2024-02-23T09:32:45;0.47;;;0.47;;
5195;SDS011;2617;51.006;12.436;2024-02-23T09:37:48;1.83;;;0.50;;
5195;SDS011;2617;51.006;12.436;2024-02-23T09:42:55;0.60;;;0.50;;
5195;SDS011;2617;51.006;12.436;2024-02-23T09:47:57;0.60;;;0.60;;
5195;SDS011;2617;51.006;12.436;2024-02-23T09:53:01;0.47;;;0.43;;
5195;SDS011;2617;51.006;12.436;2024-02-23T09:58:04;0.93;;;0.50;;
5195;SDS011;2617;51.006;12.436;2024-02-23T10:03:07;1.20;;;0.50;;
5195;SDS011;2617;51.006;12.436;2024-02-23T10:08:11;0.50;;;0.50;;
5195;SDS011;2617;51.006;12.436;2024-02-23T10:13:17;0.47;;;0.47;;
5195;SDS011;2617;51.006;12.436;2024-02-23T10:18:22;0.53;;;0.47;;
5195;SDS011;2617;51.006;12.436;2024-02-23T10:23:25;0.83;;;0.80;;
5195;SDS011;2617;51.006;12.436;2024-02-23T10:28:28;0.40;;;0.40;;
5195;SDS011;2617;51.006;12.436;2024-02-23T10:33:30;1.48;;;0.43;;
5195;SDS011;2617;51.006;12.436;2024-02-23T10:38:33;1.42;;;0.40;;
5195;SDS011;2617;51.006;12.436;2024-02-23T10:43:39;1.63;;;0.50;;
5195;SDS011;2617;51.006;12.436;2024-02-23T10:48:40;1.83;;;0.70;;
5195;SDS011;2617;51.006;12.436;2024-02-23T10:53:43;0.60;;;0.50;;
5195;SDS011;2617;51.006;12.436;2024-02-23T10:58:46;0.37;;;0.37;;
5195;SDS011;2617;51.006;12.436;2024-02-23T11:03:51;1.52;;;0.62;;
5195;SDS011;2617;51.006;12.436;2024-02-23T11:09:04;1.00;;;0.50;;
5195;SDS011;2617;51.006;12.436;2024-02-23T11:13:56;0.55;;;0.43;;
5195;SDS011;2617;51.006;12.436;2024-02-23T11:19:03;0.40;;;0.40;;
5195;SDS011;2617;51.006;12.436;2024-02-23T11:24:07;1.10;;;0.40;;
5195;SDS011;2617;51.006;12.436;2024-02-23T11:29:11;1.80;;;0.50;;
5195;SDS011;2617;51.006;12.436;2024-02-23T11:34:13;2.03;;;0.47;;
5195;SDS011;2617;51.006;12.436;2024-02-23T11:39:18;0.60;;;0.60;;
5195;SDS011;2617;51.006;12.436;2024-02-23T11:44:21;1.43;;;0.50;;
5195;SDS011;2617;51.006;12.436;2024-02-23T11:49:27;0.90;;;0.43;;
5195;SDS011;2617;51.006;12.436;2024-02-23T11:54:30;0.83;;;0.60;;
5195;SDS011;2617;51.006;12.436;2024-02-23T11:59:32;1.30;;;0.60;;
5195;SDS011;2617;51.006;12.436;2024-02-23T12:04:36;1.60;;;0.50;;
5195;SDS011;2617;51.006;12.436;2024-02-23T12:09:40;1.60;;;1.27;;
5195;SDS011;2617;51.006;12.436;2024-02-23T12:14:44;0.63;;;0.53;;
5195;SDS011;2617;51.006;12.436;2024-02-23T12:19:46;1.50;;;0.40;;
5195;SDS011;2617;51.006;12.436;2024-02-23T12:24:49;1.10;;;0.50;;
5195;SDS011;2617;51.006;12.436;2024-02-23T12:29:52;1.60;;;1.47;;
5195;SDS011;2617;51.006;12.436;2024-02-23T12:34:56;2.53;;;0.90;;
5195;SDS011;2617;51.006;12.436;2024-02-23T12:39:59;1.47;;;1.37;;
5195;SDS011;2617;51.006;12.436;2024-02-23T12:45:01;4.03;;;1.15;;
5195;SDS011;2617;51.006;12.436;2024-02-23T12:50:05;2.47;;;0.88;;
5195;SDS011;2617;51.006;12.436;2024-02-23T12:55:08;0.60;;;0.60;;
5195;SDS011;2617;51.006;12.436;2024-02-23T13:00:12;1.07;;;0.73;;
5195;SDS011;2617;51.006;12.436;2024-02-23T13:05:16;1.00;;;0.90;;
5195;SDS011;2617;51.006;12.436;2024-02-23T13:10:18;1.43;;;1.20;;
5195;SDS011;2617;51.006;12.436;2024-02-23T13:15:22;2.25;;;0.60;;
5195;SDS011;2617;51.006;12.436;2024-02-23T13:20:25;1.80;;;0.87;;
5195;SDS011;2617;51.006;12.436;2024-02-23T13:25:27;0.60;;;0.60;;
5195;SDS011;2617;51.006;12.436;2024-02-23T13:30:30;1.03;;;0.67;;
5195;SDS011;2617;51.006;12.436;2024-02-23T13:35:33;1.05;;;0.50;;
5195;SDS011;2617;51.006;12.436;2024-02-23T13:40:36;4.15;;;0.80;;
5195;SDS011;2617;51.006;12.436;2024-02-23T13:50:57;3.97;;;1.50;;
5195;SDS011;2617;51.006;12.436;2024-02-23T13:55:59;1.33;;;0.70;;
5195;SDS011;2617;51.006;12.436;2024-02-23T14:01:02;2.60;;;1.20;;
5195;SDS011;2617;51.006;12.436;2024-02-23T14:06:04;1.62;;;0.68;;
5195;SDS011;2617;51.006;12.436;2024-02-23T14:11:07;3.13;;;0.70;;
5195;SDS011;2617;51.006;12.436;2024-02-23T14:16:10;1.43;;;0.80;;
5195;SDS011;2617;51.006;12.436;2024-02-23T14:21:13;1.77;;;0.50;;
5195;SDS011;2617;51.006;12.436;2024-02-23T14:26:15;3.60;;;0.90;;
5195;SDS011;2617;51.006;12.436;2024-02-23T14:31:18;2.23;;;0.70;;
5195;SDS011;2617;51.006;12.436;2024-02-23T14:36:21;1.70;;;0.70;;
5195;SDS011;2617;51.006;12.436;2024-02-23T14:41:24;2.00;;;0.50;;
5195;SDS011;2617;51.006;12.436;2024-02-23T14:46:26;2.00;;;0.73;;
5195;SDS011;2617;51.006;12.436;2024-02-23T14:51:29;0.60;;;0.60;;
5195;SDS011;2617;51.006;12.436;2024-02-23T14:56:32;0.80;;;0.50;;
5195;SDS011;2617;51.006;12.436;2024-02-23T15:01:37;2.53;;;0.80;;
5195;SDS011;2617;51.006;12.436;2024-02-23T15:06:40;2.47;;;0.97;;
5195;SDS011;2617;51.006;12.436;2024-02-23T15:11:44;1.83;;;1.33;;
5195;SDS011;2617;51.006;12.436;2024-02-23T15:16:46;2.93;;;0.97;;
5195;SDS011;2617;51.006;12.436;2024-02-23T15:21:49;0.60;;;0.60;;
5195;SDS011;2617;51.006;12.436;2024-02-23T15:26:51;1.93;;;0.97;;
5195;SDS011;2617;51.006;12.436;2024-02-23T15:31:54;2.05;;;0.50;;
5195;SDS011;2617;51.006;12.436;2024-02-23T15:36:57;2.10;;;0.80;;
5195;SDS011;2617;51.006;12.436;2024-02-23T15:41:59;2.70;;;1.08;;
5195;SDS011;2617;51.006;12.436;2024-02-23T15:47:02;12.48;;;1.12;;
5195;SDS011;2617;51.006;12.436;2024-02-23T15:52:05;1.17;;;0.83;;
5195;SDS011;2617;51.006;12.436;2024-02-23T15:57:07;1.33;;;1.23;;
5195;SDS011;2617;51.006;12.436;2024-02-23T16:02:11;2.53;;;1.17;;
5195;SDS011;2617;51.006;12.436;2024-02-23T16:07:14;1.20;;;1.00;;
5195;SDS011;2617;51.006;12.436;2024-02-23T16:12:17;0.83;;;0.70;;
5195;SDS011;2617;51.006;12.436;2024-02-23T16:17:20;1.57;;;1.07;;
5195;SDS011;2617;51.006;12.436;2024-02-23T16:22:23;2.50;;;1.10;;
5195;SDS011;2617;51.006;12.436;2024-02-23T16:27:26;2.97;;;1.13;;
5195;SDS011;2617;51.006;12.436;2024-02-23T16:32:29;1.80;;;0.70;;
5195;SDS011;2617;51.006;12.436;2024-02-23T16:37:32;1.40;;;1.00;;
5195;SDS011;2617;51.006;12.436;2024-02-23T16:42:34;3.00;;;0.80;;
5195;SDS011;2617;51.006;12.436;2024-02-23T16:47:37;4.87;;;1.10;;
5195;SDS011;2617;51.006;12.436;2024-02-23T16:52:39;6.18;;;2.80;;
5195;SDS011;2617;51.006;12.436;2024-02-23T16:57:41;3.77;;;1.83;;
5195;SDS011;2617;51.006;12.436;2024-02-23T17:02:44;2.77;;;1.87;;
5195;SDS011;2617;51.006;12.436;2024-02-23T17:07:46;2.37;;;1.08;;
5195;SDS011;2617;51.006;12.436;2024-02-23T17:12:50;1.73;;;1.00;;
5195;SDS011;2617;51.006;12.436;2024-02-23T17:17:52;1.80;;;1.70;;
5195;SDS011;2617;51.006;12.436;2024-02-23T17:22:55;0.67;;;0.67;;
5195;SDS011;2617;51.006;12.436;2024-02-23T17:27:57;1.17;;;1.07;;
5195;SDS011;2617;51.006;12.436;2024-02-23T17:33:00;6.33;;;0.80;;
5195;SDS011;2617;51.006;12.436;2024-02-23T17:38:02;0.70;;;0.70;;
5195;SDS011;2617;51.006;12.436;2024-02-23T17:43:05;3.75;;;0.80;;
5195;SDS011;2617;51.006;12.436;2024-02-23T17:48:08;1.20;;;1.10;;
5195;SDS011;2617;51.006;12.436;2024-02-23T17:53:10;2.85;;;1.50;;
5195;SDS011;2617;51.006;12.436;2024-02-23T17:58:13;1.53;;;1.00;;
5195;SDS011;2617;51.006;12.436;2024-02-23T18:03:16;3.83;;;1.73;;
5195;SDS011;2617;51.006;12.436;2024-02-23T18:08:19;21.20;;;9.60;;
5195;SDS011;2617;51.006;12.436;2024-02-23T18:13:22;3.97;;;2.03;;
5195;SDS011;2617;51.006;12.436;2024-02-23T18:18:24;1.30;;;1.20;;
5195;SDS011;2617;51.006;12.436;2024-02-23T18:23:27;1.80;;;1.70;;
5195;SDS011;2617;51.006;12.436;2024-02-23T18:28:30;5.80;;;3.50;;
5195;SDS011;2617;51.006;12.436;2024-02-23T18:33:32;3.48;;;2.04;;
5195;SDS011;2617;51.006;12.436;2024-02-23T18:38:34;3.37;;;1.93;;
5195;SDS011;2617;51.006;12.436;2024-02-23T18:43:37;8.13;;;4.20;;
5195;SDS011;2617;51.006;12.436;2024-02-23T18:48:41;6.53;;;3.10;;
5195;SDS011;2617;51.006;12.436;2024-02-23T18:53:44;4.37;;;3.60;;
5195;SDS011;2617;51.006;12.436;2024-02-23T18:58:46;6.63;;;4.47;;
5195;SDS011;2617;51.006;12.436;2024-02-23T19:03:49;5.05;;;3.83;;
5195;SDS011;2617;51.006;12.436;2024-02-23T19:08:51;6.00;;;2.93;;
5195;SDS011;2617;51.006;12.436;2024-02-23T19:13:54;6.60;;;4.30;;
5195;SDS011;2617;51.006;12.436;2024-02-23T19:18:56;10.40;;;5.37;;
5195;SDS011;2617;51.006;12.436;2024-02-23T19:23:58;23.33;;;9.50;;
5195;SDS011;2617;51.006;12.436;2024-02-23T19:29:01;10.67;;;6.43;;
5195;SDS011;2617;51.006;12.436;2024-02-23T19:34:04;4.47;;;2.90;;
5195;SDS011;2617;51.006;12.436;2024-02-23T19:39:06;2.70;;;2.50;;
5195;SDS011;2617;51.006;12.436;2024-02-23T19:44:08;7.57;;;4.43;;
5195;SDS011;2617;51.006;12.436;2024-02-23T19:49:11;2.80;;;2.60;;
5195;SDS011;2617;51.006;12.436;2024-02-23T19:54:14;3.13;;;1.97;;
5195;SDS011;2617;51.006;12.436;2024-02-23T19:59:16;6.70;;;3.17;;
5195;SDS011;2617;51.006;12.436;2024-02-23T20:04:19;2.77;;;1.97;;
5195;SDS011;2617;51.006;12.436;2024-02-23T20:09:21;2.57;;;1.47;;
5195;SDS011;2617;51.006;12.436;2024-02-23T20:14:23;1.53;;;1.43;;
5195;SDS011;2617;51.006;12.436;2024-02-23T20:19:26;4.70;;;3.27;;
5195;SDS011;2617;51.006;12.436;2024-02-23T20:24:29;6.70;;;2.92;;
5195;SDS011;2617;51.006;12.436;2024-02-23T20:29:32;4.03;;;1.90;;
5195;SDS011;2617;51.006;12.436;2024-02-23T20:34:35;1.80;;;1.70;;
5195;SDS011;2617;51.006;12.436;2024-02-23T20:39:37;1.90;;;1.53;;
5195;SDS011;2617;51.006;12.436;2024-02-23T20:44:40;7.00;;;2.00;;
5195;SDS011;2617;51.006;12.436;2024-02-23T20:49:42;2.25;;;1.70;;
5195;SDS011;2617;51.006;12.436;2024-02-23T20:54:45;3.00;;;1.95;;
5195;SDS011;2617;51.006;12.436;2024-02-23T20:59:48;2.47;;;1.70;;
5195;SDS011;2617;51.006;12.436;2024-02-23T21:04:50;2.03;;;1.60;;
5195;SDS011;2617;51.006;12.436;2024-02-23T21:09:53;3.10;;;2.00;;
5195;SDS011;2617;51.006;12.436;2024-02-23T21:14:55;3.13;;;1.93;;
5195;SDS011;2617;51.006;12.436;2024-02-23T21:19:58;1.93;;;1.80;;
5195;SDS011;2617;51.006;12.436;2024-02-23T21:25:00;2.87;;;2.15;;
5195;SDS011;2617;51.006;12.436;2024-02-23T21:30:03;3.13;;;2.10;;
5195;SDS011;2617;51.006;12.436;2024-02-23T21:35:08;2.20;;;2.00;;
5195;SDS011;2617;51.006;12.436;2024-02-23T21:40:10;3.00;;;1.90;;
5195;SDS011;2617;51.006;12.436;2024-02-23T21:45:13;3.90;;;1.30;;
5195;SDS011;2617;51.006;12.436;2024-02-23T21:50:16;1.90;;;1.23;;
5195;SDS011;2617;51.006;12.436;2024-02-23T21:55:19;1.67;;;1.57;;
5195;SDS011;2617;51.006;12.436;2024-02-23T22:00:22;1.53;;;1.43;;
5195;SDS011;2617;51.006;12.436;2024-02-23T22:05:25;1.87;;;1.70;;
5195;SDS011;2617;51.006;12.436;2024-02-23T22:10:27;2.33;;;1.70;;
5195;SDS011;2617;51.006;12.436;2024-02-23T22:15:29;2.70;;;1.73;;
5195;SDS011;2617;51.006;12.436;2024-02-23T22:20:33;2.13;;;2.03;;
5195;SDS011;2617;51.006;12.436;2024-02-23T22:25:35;2.10;;;1.97;;
5195;SDS011;2617;51.006;12.436;2024-02-23T22:30:37;3.13;;;2.70;;
5195;SDS011;2617;51.006;12.436;2024-02-23T22:35:40;2.17;;;1.80;;
5195;SDS011;2617;51.006;12.436;2024-02-23T22:40:42;1.97;;;1.87;;
5195;SDS011;2617;51.006;12.436;2024-02-23T22:45:45;1.80;;;1.70;;
5195;SDS011;2617;51.006;12.436;2024-02-23T22:50:47;1.80;;;1.80;;
5195;SDS011;2617;51.006;12.436;2024-02-23T22:55:49;3.17;;;1.80;;
5195;SDS011;2617;51.006;12.436;2024-02-23T23:00:53;4.23;;;1.40;;
5195;SDS011;2617;51.006;12.436;2024-02-23T23:05:55;3.10;;;2.13;;
5195;SDS011;2617;51.006;12.436;2024-02-23T23:10:57;5.10;;;1.70;;
5195;SDS011;2617;51.006;12.436;2024-02-23T23:16:00;1.80;;;1.70;;
5195;SDS011;2617;51.006;12.436;2024-02-23T23:21:02;1.53;;;1.43;;
5195;SDS011;2617;51.006;12.436;2024-02-23T23:26:05;2.40;;;1.63;;
5195;SDS011;2617;51.006;12.436;2024-02-23T23:31:07;3.53;;;1.50;;
5195;SDS011;2617;51.006;12.436;2024-02-23T23:36:10;4.73;;;2.10;;
5195;SDS011;2617;51.006;12.436;2024-02-23T23:41:12;3.47;;;2.00;;
5195;SDS011;2617;51.006;12.436;2024-02-23T23:46:15;2.67;;;2.10;;
5195;SDS011;2617;51.006;12.436;2024-02-23T23:51:17;3.90;;;1.97;;
5195;SDS011;2617;51.006;12.436;2024-02-23T23:56:19;2.40;;;1.37;;
